createdAt,value
2022-09-22T00:02:44.414Z,67.2
2022-09-22T00:08:19.545Z,67.4
2022-09-22T00:13:55.558Z,67.6
2022-09-22T00:19:32.804Z,67.9
2022-09-22T00:25:07.941Z,68.3
2022-09-22T00:31:00.916Z,68.6
2022-09-22T00:36:35.992Z,68.7
2022-09-22T00:42:10.810Z,68.7
2022-09-22T00:48:04.522Z,68.6
2022-09-22T00:54:26.352Z,68.8
2022-09-22T01:00:01.229Z,69
2022-09-22T01:05:36.078Z,69.3
2022-09-22T01:11:11.266Z,69.6
2022-09-22T01:16:49.961Z,69.7
2022-09-22T01:22:24.961Z,69.9
2022-09-22T01:28:08.531Z,70
2022-09-22T01:33:48.257Z,70.1
2022-09-22T01:39:24.255Z,70
2022-09-22T01:44:59.074Z,70
2022-09-22T01:50:34.493Z,69.8
2022-09-22T01:56:10.361Z,69.7
2022-09-22T02:01:45.357Z,69.5
2022-09-22T02:07:31.863Z,69.4
2022-09-22T02:13:14.200Z,69.3
2022-09-22T02:18:50.051Z,69.4
2022-09-22T02:24:48.208Z,69.4
2022-09-22T02:30:27.726Z,69.6
2022-09-22T02:36:02.491Z,70.1
2022-09-22T02:41:37.582Z,70.5
2022-09-22T02:47:12.603Z,70.4
2022-09-22T02:52:47.703Z,70.2
2022-09-22T02:58:22.271Z,70.2
2022-09-22T03:04:01.274Z,70.4
2022-09-22T03:10:09.659Z,70.2
2022-09-22T03:15:44.699Z,70
2022-09-22T03:21:29.610Z,70.1
2022-09-22T03:27:04.441Z,70
2022-09-22T03:32:40.394Z,69.9
2022-09-22T03:38:15.630Z,69.9
2022-09-22T03:44:02.143Z,69.7
2022-09-22T03:49:38.385Z,69.7
2022-09-22T03:55:13.750Z,69.8
2022-09-22T04:00:55.496Z,69.8
2022-09-22T04:06:31.449Z,69.8
2022-09-22T04:12:06.348Z,70.1
2022-09-22T04:17:41.315Z,70.4
2022-09-22T04:23:17.401Z,70.5
2022-09-22T04:28:57.353Z,70.6
2022-09-22T04:34:42.408Z,70.9
2022-09-22T04:40:17.320Z,71.2
2022-09-22T04:45:53.411Z,71.2
2022-09-22T04:51:31.774Z,71.1
2022-09-22T04:57:06.783Z,71.1
2022-09-22T05:02:42.258Z,71
2022-09-22T05:08:17.779Z,71
2022-09-22T05:13:52.781Z,71.1
2022-09-22T05:19:27.933Z,71.5
2022-09-22T05:25:02.951Z,71.2
2022-09-22T05:30:58.525Z,71.1
2022-09-22T05:36:42.263Z,70.8
2022-09-22T05:42:16.920Z,70.7
2022-09-22T05:47:54.282Z,70.8
2022-09-22T05:53:29.054Z,71
2022-09-22T05:59:09.202Z,74.2
2022-09-22T06:04:44.276Z,75.7
2022-09-22T06:10:28.081Z,76.9
2022-09-22T06:16:03.582Z,76.8
2022-09-22T06:23:19.412Z,77.6
2022-09-22T06:28:54.239Z,78.3
2022-09-22T06:34:29.140Z,78.2
2022-09-22T06:40:17.996Z,78.8
2022-09-22T06:45:55.246Z,78.2
2022-09-22T06:51:31.166Z,78.7
2022-09-22T06:57:06.087Z,79.1
2022-09-22T07:02:42.118Z,78.9
2022-09-22T07:08:16.917Z,78.8
2022-09-22T07:13:52.855Z,78.4
2022-09-22T07:19:28.745Z,77.9
2022-09-22T07:25:04.823Z,77.1
2022-09-22T07:30:40.828Z,76.1
2022-09-22T07:36:16.040Z,75.5
2022-09-22T07:41:51.201Z,75.8
2022-09-22T07:47:30.229Z,74.7
2022-09-22T07:53:05.828Z,73.9
2022-09-22T07:58:43.699Z,74.2
2022-09-22T08:04:19.146Z,73.6
2022-09-22T08:09:55.124Z,72.5
2022-09-22T08:15:30.717Z,71.8
2022-09-22T08:21:06.423Z,70.7
2022-09-22T08:26:51.298Z,69.4
2022-09-22T08:32:26.676Z,66.2
2022-09-22T08:38:03.598Z,66.3
2022-09-22T08:43:44.042Z,65.3
2022-09-22T08:49:20.057Z,62.6
2022-09-22T08:54:55.067Z,60.8
2022-09-22T09:00:31.283Z,61.5
2022-09-22T09:06:07.425Z,60.6
2022-09-22T09:12:04.612Z,60.1
2022-09-22T09:17:37.443Z,57.6
2022-09-22T09:23:12.362Z,58.5
2022-09-22T09:28:47.144Z,57.1
2022-09-22T09:34:22.752Z,55
2022-09-22T09:39:58.584Z,54.2
2022-09-22T09:45:33.404Z,56.1
2022-09-22T09:51:08.467Z,52.6
2022-09-22T09:56:43.475Z,53.7
2022-09-22T10:02:18.597Z,53.2
2022-09-22T10:07:54.220Z,53.3
2022-09-22T10:13:34.157Z,52.2
2022-09-22T10:19:08.973Z,50.8
2022-09-22T10:24:45.692Z,51.1
2022-09-22T10:30:20.857Z,52.1
2022-09-22T10:35:55.819Z,48.5
2022-09-22T10:41:30.793Z,48.7
2022-09-22T10:47:05.746Z,48.7
2022-09-22T10:52:41.818Z,49.2
2022-09-22T10:58:16.799Z,48.2
2022-09-22T11:03:53.770Z,49.4
2022-09-22T11:09:34.906Z,50.2
2022-09-22T11:15:10.604Z,48.1
2022-09-22T11:20:45.744Z,47
2022-09-22T11:26:21.213Z,47.2
2022-09-22T11:31:56.397Z,45.8
2022-09-22T11:37:31.366Z,47.7
2022-09-22T11:43:08.469Z,48
2022-09-22T11:48:43.690Z,43.9
2022-09-22T11:54:18.612Z,45.4
2022-09-22T11:59:53.313Z,45.4
2022-09-22T12:05:28.574Z,44.8
2022-09-22T12:11:03.586Z,46.6
2022-09-22T12:16:39.869Z,45.5
2022-09-22T12:22:14.949Z,45.6
2022-09-22T12:27:49.778Z,44.5
2022-09-22T12:33:24.645Z,42
2022-09-22T12:38:59.666Z,44
2022-09-22T12:44:34.404Z,42.3
2022-09-22T12:50:09.345Z,41.8
2022-09-22T12:55:44.242Z,39.2
2022-09-22T13:01:20.010Z,41.8
2022-09-22T13:07:07.897Z,39.3
2022-09-22T13:12:44.705Z,37.5
2022-09-22T13:18:19.869Z,39.7
2022-09-22T13:23:58.485Z,42
2022-09-22T13:29:38.561Z,42.1
2022-09-22T13:35:15.401Z,42.6
2022-09-22T13:40:50.669Z,41.7
2022-09-22T13:46:27.756Z,40.5
2022-09-22T13:52:04.178Z,40.1
2022-09-22T13:57:40.930Z,40.2
2022-09-22T14:03:15.944Z,39.4
2022-09-22T14:08:50.843Z,39.6
2022-09-22T14:14:25.832Z,39.4
2022-09-22T14:20:01.441Z,38.8
2022-09-22T14:25:42.587Z,38.2
2022-09-22T14:31:23.719Z,37.6
2022-09-22T14:36:59.713Z,38.2
2022-09-22T14:42:35.147Z,38
2022-09-22T14:48:20.508Z,38.1
2022-09-22T14:53:55.715Z,36.6
2022-09-22T14:59:42.145Z,36.6
2022-09-22T15:05:30.445Z,37.1
2022-09-22T15:11:10.682Z,38.4
2022-09-22T15:16:48.394Z,39.1
2022-09-22T15:22:44.883Z,38.9
2022-09-22T15:28:27.799Z,39.6
2022-09-22T15:34:13.417Z,40
2022-09-22T15:39:53.177Z,40.2
2022-09-22T15:45:31.429Z,40.4
2022-09-22T15:51:07.982Z,40.3
2022-09-22T15:56:47.236Z,41.4
2022-09-22T16:02:25.417Z,41.5
2022-09-22T16:08:06.840Z,41.7
2022-09-22T16:13:41.537Z,41.9
2022-09-22T16:19:17.013Z,40.9
2022-09-22T16:24:55.189Z,41.8
2022-09-22T16:30:30.079Z,42.1
2022-09-22T16:36:04.954Z,42.9
2022-09-22T16:41:39.797Z,42.8
2022-09-22T16:47:14.558Z,44
2022-09-22T16:52:49.465Z,43.4
2022-09-22T16:58:24.517Z,45.5
2022-09-22T17:03:59.619Z,44.4
2022-09-22T17:09:34.970Z,44.5
2022-09-22T17:15:09.635Z,46.2
2022-09-22T17:20:44.682Z,46.9
2022-09-22T17:26:19.973Z,47.4
2022-09-22T17:31:55.079Z,48.8
2022-09-22T17:37:30.164Z,49.9
2022-09-22T17:43:05.404Z,51.4
2022-09-22T17:48:40.792Z,52.1
2022-09-22T17:54:17.186Z,52.4
2022-09-22T17:59:52.168Z,53.7
2022-09-22T18:05:27.601Z,55.3
2022-09-22T18:11:02.965Z,55.7
2022-09-22T18:16:38.315Z,55.9
2022-09-22T18:22:14.105Z,56.9
2022-09-22T18:27:49.072Z,56.9
2022-09-22T18:33:24.259Z,58
2022-09-22T18:38:59.169Z,59.5
2022-09-22T18:44:33.943Z,59.3
2022-09-22T18:50:08.901Z,59.7
2022-09-22T18:55:43.845Z,60.4
2022-09-22T19:01:20.584Z,60.7
2022-09-22T19:06:58.322Z,61.2
2022-09-22T19:12:58.834Z,62.7
2022-09-22T19:18:36.215Z,62.6
2022-09-22T19:24:15.849Z,62.3
2022-09-22T19:30:24.722Z,63.6
2022-09-22T19:36:06.340Z,66.9
2022-09-22T19:41:42.249Z,67.6
2022-09-22T19:47:18.289Z,67.6
2022-09-22T19:52:53.468Z,66.3
2022-09-22T19:58:28.186Z,67.4
2022-09-22T20:04:04.304Z,66.4
2022-09-22T20:09:40.489Z,66.7
2022-09-22T20:15:15.364Z,67.4
2022-09-22T20:20:51.466Z,66.9
2022-09-22T20:26:26.225Z,67.8
2022-09-22T20:32:01.122Z,69.7
2022-09-22T20:37:38.753Z,71.1
2022-09-22T20:43:13.917Z,71.9
2022-09-22T20:48:48.761Z,71.9
2022-09-22T20:54:24.225Z,72.5
2022-09-22T21:00:02.970Z,73.7
2022-09-22T21:05:37.718Z,73.9
2022-09-22T21:11:35.342Z,73.9
2022-09-22T21:17:07.883Z,74.4
2022-09-22T21:22:43.663Z,74.6
2022-09-22T21:28:18.945Z,75
2022-09-22T21:33:53.744Z,75
2022-09-22T21:39:28.563Z,75.3
2022-09-22T21:45:04.792Z,74.4
2022-09-22T21:50:39.670Z,74
2022-09-22T21:56:14.807Z,75.2
2022-09-22T22:01:58.950Z,76.4
2022-09-22T22:07:34.078Z,76
2022-09-22T22:13:31.740Z,75.3
2022-09-22T22:19:04.251Z,75.6
2022-09-22T22:24:39.983Z,73.1
2022-09-22T22:30:14.925Z,71.3
2022-09-22T22:35:50.214Z,70.7
2022-09-22T22:41:46.315Z,70.3
2022-09-22T22:47:21.805Z,70.1
2022-09-22T22:52:57.590Z,70.1
2022-09-22T22:58:41.937Z,70.1
2022-09-22T23:04:17.232Z,70.1
2022-09-22T23:09:55.638Z,70
2022-09-22T23:15:30.958Z,70
2022-09-22T23:21:06.612Z,70.1
2022-09-22T23:26:47.817Z,70
2022-09-22T23:32:22.851Z,69.9
2022-09-22T23:37:59.083Z,69.8
2022-09-22T23:43:34.298Z,69.8
2022-09-22T23:49:10.042Z,69.8
2022-09-22T23:54:46.200Z,69.9
